Time;durP1;ratioP1;P1;durP2;ratioP2;P2;SDS_P1;SDS_P2;PMS_P1;PMS_P2;Temp;Humidity;BMP_temperature;BMP_pressure;BME280_temperature;BME280_humidity;BME280_pressure;Samples;Min_cycle;Max_cycle;Signal;HPM_P1;HPM_P2
2022/05/23 00:00:01;;;;;;;;;;;;;;;;;;5055302;28;19908;-78
2022/05/23 00:02:27;;;;;;;;;;;;;;;;;;5054810;28;19913;-78
2022/05/23 00:04:53;;;;;;;;;;;;;;;;;;5053326;28;20300;-78
2022/05/23 00:07:22;;;;;;;;;;;;;;;;;;5052840;28;20360;-78
2022/05/23 00:09:48;;;;;;;;;;;;;;;;;;5055467;28;19924;-79
2022/05/23 00:12:14;;;;;;;;;;;;;;;;;;5056143;28;20035;-80
2022/05/23 00:14:42;;;;;;;;;;;;;;;;;;5054681;28;19936;-79
2022/05/23 00:17:09;;;;;;;;;;;;;;;;;;5056592;28;19908;-80
2022/05/23 00:19:35;;;;;;;;;;;;;;;;;;5052979;28;19909;-79
2022/05/23 00:22:01;;;;;;;;;;;;;;;;;;5052829;28;19920;-79
2022/05/23 00:24:27;;;;;;;;;;;;;;;;;;5056541;28;19920;-79
2022/05/23 00:26:53;;;;;;;;;;;;;;;;;;5059745;28;19912;-79
2022/05/23 00:29:19;;;;;;;;;;;;;;;;;;5058905;28;20194;-79
2022/05/23 00:37:15;;;;;;;;;;;;;;;;;;5055587;28;19919;-78
2022/05/23 00:39:41;;;;;;;;;;;;;;;;;;5053043;28;20287;-79
2022/05/23 00:44:56;;;;;;;;;;;23.00;48.40;;;;;;5058008;28;19937;-79
2022/05/23 00:47:23;;;;;;;;;;;22.90;47.30;;;;;;5057301;28;20291;-79
2022/05/23 00:49:48;;;;;;;;;;;22.80;47.20;;;;;;5058466;28;20273;-79
2022/05/23 00:52:20;;;;;;;;;;;22.70;47.10;;;;;;5057594;28;19919;-79
2022/05/23 00:54:48;;;;;;;;;;;22.60;46.80;;;;;;5061732;28;19913;-79
2022/05/23 00:57:16;;;;;;;;;;;22.60;46.70;;;;;;5063687;28;19943;-79
2022/05/23 00:59:42;;;;;;;;;;;22.60;46.70;;;;;;5057211;28;19905;-79
2022/05/23 01:02:09;;;;;;;;;;;22.60;46.60;;;;;;5056398;28;19931;-79
2022/05/23 01:04:34;;;;;;;;;;;22.50;46.50;;;;;;5056694;28;20295;-79
2022/05/23 01:07:00;;;;;;;;;;;22.40;46.30;;;;;;5057083;28;19912;-79
2022/05/23 01:09:27;;;;;;;;;;;22.40;46.40;;;;;;5055357;28;19912;-79
2022/05/23 01:11:53;;;;;;;;;;;22.30;46.30;;;;;;5055699;28;20399;-79
2022/05/23 01:14:20;;;;;;;;;;;22.30;46.40;;;;;;5055023;28;19913;-79
2022/05/23 01:16:45;;;;;;;;;;;22.30;46.40;;;;;;5054976;28;20003;-79
2022/05/23 01:19:11;;;;;;;;;;;22.30;46.40;;;;;;5054276;28;20320;-79
2022/05/23 01:21:37;;;;;;;;;;;22.20;46.60;;;;;;5053541;28;20373;-80
2022/05/23 01:24:05;;;;;;;;;;;22.10;46.60;;;;;;5053505;28;19952;-80
2022/05/23 01:26:32;;;;;;;;;;;22.10;46.80;;;;;;5054456;28;19909;-80
2022/05/23 01:28:58;;;;;;;;;;;22.20;46.80;;;;;;5055304;28;19917;-80
2022/05/23 01:31:23;;;;;;;;;;;22.10;46.60;;;;;;5055986;28;19955;-80
2022/05/23 01:33:49;;;;;;;;;;;22.00;46.70;;;;;;5055865;28;19923;-79
2022/05/23 01:36:15;;;;;;;;;;;22.00;46.50;;;;;;5056637;28;19909;-79
2022/05/23 01:38:40;;;;;;;;;;;22.00;46.80;;;;;;5057153;28;19908;-79
2022/05/23 01:41:06;;;;;;;;;;;22.00;46.40;;;;;;5056818;28;20438;-79
2022/05/23 01:43:31;;;;;;;;;;;21.90;46.40;;;;;;5055146;28;20360;-79
2022/05/23 01:45:58;;;;;;;;;;;21.80;46.50;;;;;;5054604;28;20365;-80
2022/05/23 01:48:24;;;;;;;;;;;21.80;46.60;;;;;;5052848;28;19955;-80
2022/05/23 01:50:49;;;;;;;;;;;21.80;46.60;;;;;;5054553;28;20003;-80
2022/05/23 01:53:15;;;;;;;;;;;21.80;46.50;;;;;;5054351;28;19963;-80
2022/05/23 01:55:40;;;;;;;;;;;21.80;46.80;;;;;;5054742;28;19924;-79
2022/05/23 01:58:06;;;;;;;;;;;21.80;46.70;;;;;;5057924;28;19919;-79
2022/05/23 02:03:16;;;;;;;;;;;21.70;47.10;;;;;;5058608;28;19935;-79
2022/05/23 02:05:41;;;;;;;;;;;21.80;47.20;;;;;;5059366;28;19909;-79
2022/05/23 02:08:07;;;;;;;;;;;21.70;47.00;;;;;;5056149;28;19967;-79
2022/05/23 02:10:32;;;;;;;;;;;21.70;46.90;;;;;;5056697;28;19913;-79
2022/05/23 02:13:00;;;;;;;;;;;21.70;47.10;;;;;;5058749;28;19915;-79
2022/05/23 02:15:28;;;;;;;;;;;21.70;47.00;;;;;;5058177;28;20473;-79
2022/05/23 02:17:56;;;;;;;;;;;21.70;47.30;;;;;;5058807;28;20408;-79
2022/05/23 02:20:21;;;;;;;;;;;21.70;47.50;;;;;;5057621;28;19953;-79
2022/05/23 02:22:47;;;;;;;;;;;21.60;47.30;;;;;;5057098;28;19924;-79
2022/05/23 02:25:12;;;;;;;;;;;21.60;47.60;;;;;;5055560;28;19916;-79
2022/05/23 02:27:38;;;;;;;;;;;21.60;47.40;;;;;;5057186;28;19939;-79
2022/05/23 02:30:04;;;;;;;;;;;21.60;47.40;;;;;;5056373;28;19916;-79
2022/05/23 02:32:29;;;;;;;;;;;21.60;47.60;;;;;;5057598;28;20364;-78
2022/05/23 02:34:55;;;;;;;;;;;21.50;47.60;;;;;;5056164;28;19924;-78
2022/05/23 02:37:20;;;;;;;;;;;21.50;47.50;;;;;;5056748;28;19931;-78
2022/05/23 02:39:46;;;;;;;;;;;21.50;47.70;;;;;;5056062;28;19913;-78
2022/05/23 02:42:11;;;;;;;;;;;21.50;47.50;;;;;;5055226;28;20372;-78
2022/05/23 02:44:37;;;;;;;;;;;21.40;47.50;;;;;;5056897;28;19913;-78
2022/05/23 02:47:03;;;;;;;;;;;21.40;47.60;;;;;;5055398;28;20018;-78
2022/05/23 02:49:29;;;;;;;;;;;21.40;47.60;;;;;;5056375;28;19912;-79
2022/05/23 02:51:54;;;;;;;;;;;21.40;47.80;;;;;;5053249;28;20007;-79
2022/05/23 02:54:20;;;;;;;;;;;21.40;47.90;;;;;;5053381;28;20369;-79
2022/05/23 02:56:45;;;;;;;;;;;21.40;47.90;;;;;;5054695;28;20003;-79
2022/05/23 02:59:11;;;;;;;;;;;21.40;47.70;;;;;;5054711;28;20361;-79
2022/05/23 03:04:21;;;;;;;;;;;21.30;47.60;;;;;;5060855;28;19931;-80
2022/05/23 03:06:46;;;;;;;;;;;21.30;47.70;;;;;;5061496;28;20361;-79
2022/05/23 03:09:12;;;;;;;;;;;21.30;47.60;;;;;;5056564;28;19919;-79
2022/05/23 03:11:37;;;;;;;;;;;21.30;47.90;;;;;;5056511;28;19909;-79
2022/05/23 03:14:03;;;;;;;;;;;21.30;47.90;;;;;;5058999;28;19999;-79
2022/05/23 03:16:28;;;;;;;;;;;21.30;48.10;;;;;;5050318;28;20092;-78
2022/05/23 03:18:54;;;;;;;;;;;21.30;48.10;;;;;;5053753;28;19920;-79
2022/05/23 03:27:00;;;;;;;;;;;21.30;47.90;;;;;;5053035;28;20098;-79
2022/05/23 03:29:27;;;;;;;;;;;21.30;47.90;;;;;;5052219;28;19944;-79
2022/05/23 03:31:52;;;;;;;;;;;21.20;48.00;;;;;;5053745;28;19909;-79
2022/05/23 03:34:18;;;;;;;;;;;21.20;48.00;;;;;;5035467;28;19916;-79
2022/05/23 03:36:43;;;;;;;;;;;21.20;47.80;;;;;;5049408;28;19913;-79
2022/05/23 03:39:09;;;;;;;;;;;21.20;48.00;;;;;;5048049;28;20463;-79
2022/05/23 03:41:35;;;;;;;;;;;21.20;48.00;;;;;;5033938;28;19913;-82
2022/05/23 03:44:00;;;;;;;;;;;21.20;47.80;;;;;;5032440;28;19916;-81
2022/05/23 03:46:27;;;;;;;;;;;21.20;48.20;;;;;;5034329;28;19963;-81
2022/05/23 03:48:52;;;;;;;;;;;21.20;47.90;;;;;;5034249;28;20331;-81
2022/05/23 03:51:18;;;;;;;;;;;21.10;48.00;;;;;;5032725;28;20410;-80
2022/05/23 03:53:44;;;;;;;;;;;21.10;47.90;;;;;;5034772;28;20380;-79
2022/05/23 03:56:10;;;;;;;;;;;21.10;47.70;;;;;;5034096;28;19956;-79
2022/05/23 03:58:36;;;;;;;;;;;21.20;48.00;;;;;;5037095;28;20415;-80
2022/05/23 04:01:10;;;;;;;;;;;21.10;47.50;;;;;;5036145;28;19909;-80
2022/05/23 04:03:36;;;;;;;;;;;21.10;47.60;;;;;;5036464;28;19913;-80
2022/05/23 04:06:02;;;;;;;;;;;21.10;47.60;;;;;;5037191;28;20323;-80
2022/05/23 04:08:27;;;;;;;;;;;21.10;47.70;;;;;;5036400;28;20004;-79
2022/05/23 04:10:53;;;;;;;;;;;21.10;47.70;;;;;;5054204;28;19917;-79
2022/05/23 04:13:18;;;;;;;;;;;21.10;47.70;;;;;;5055425;28;19916;-79
2022/05/23 04:15:44;;;;;;;;;;;21.10;47.50;;;;;;5056297;28;20283;-78
2022/05/23 04:18:09;;;;;;;;;;;21.10;47.70;;;;;;5059039;28;20019;-78
2022/05/23 04:20:35;;;;;;;;;;;21.10;48.10;;;;;;5056053;28;19916;-79
2022/05/23 04:23:02;;;;;;;;;;;21.10;47.90;;;;;;5065794;28;19988;-78
2022/05/23 04:25:27;;;;;;;;;;;21.00;47.80;;;;;;5071377;28;19913;-78
2022/05/23 04:27:53;;;;;;;;;;;21.10;48.00;;;;;;5068674;28;19919;-78
2022/05/23 04:30:18;;;;;;;;;;;21.10;47.90;;;;;;5057188;28;19944;-77
2022/05/23 04:35:28;;;;;;;;;;;21.10;48.10;;;;;;5053485;28;19936;-79
2022/05/23 04:37:55;;;;;;;;;;;21.10;48.20;;;;;;5053161;28;20376;-79
2022/05/23 04:40:25;;;;;;;;;;;21.10;48.20;;;;;;5053319;28;19908;-79
2022/05/23 04:42:51;;;;;;;;;;;21.10;48.30;;;;;;5053673;28;19909;-79
2022/05/23 04:45:17;;;;;;;;;;;21.10;48.50;;;;;;5053382;28;19909;-79
2022/05/23 04:50:27;;;;;;;;;;;21.10;48.60;;;;;;5051701;28;19966;-79
2022/05/23 04:52:54;;;;;;;;;;;21.10;48.90;;;;;;5046097;28;20264;-78
2022/05/23 04:55:20;;;;;;;;;;;21.10;49.00;;;;;;5058113;28;19912;-80
2022/05/23 04:57:46;;;;;;;;;;;21.10;49.60;;;;;;5053883;28;19982;-80
2022/05/23 05:00:13;;;;;;;;;;;21.20;49.80;;;;;;5060973;28;20399;-80
2022/05/23 05:02:39;;;;;;;;;;;21.10;49.60;;;;;;5052833;28;19954;-80
2022/05/23 05:05:06;;;;;;;;;;;21.20;50.30;;;;;;5053025;28;19909;-79
2022/05/23 05:07:31;;;;;;;;;;;21.20;50.20;;;;;;5060075;28;20292;-79
2022/05/23 05:09:57;;;;;;;;;;;21.20;50.30;;;;;;5059353;28;19925;-79
2022/05/23 05:12:22;;;;;;;;;;;21.20;50.30;;;;;;5064923;28;20329;-79
2022/05/23 05:14:48;;;;;;;;;;;21.20;50.60;;;;;;5073273;28;19924;-79
2022/05/23 05:17:15;;;;;;;;;;;21.10;50.40;;;;;;5055031;28;20504;-81
2022/05/23 05:19:41;;;;;;;;;;;21.20;50.80;;;;;;5051962;28;19913;-80
2022/05/23 05:22:06;;;;;;;;;;;21.20;50.60;;;;;;5053439;28;19916;-79
2022/05/23 05:24:32;;;;;;;;;;;21.20;51.20;;;;;;5052479;28;19915;-80
2022/05/23 05:26:58;;;;;;;;;;;21.20;51.10;;;;;;5043230;28;19913;-80
2022/05/23 05:29:24;;;;;;;;;;;21.20;50.60;;;;;;5051850;28;20011;-80
2022/05/23 05:31:53;;;;;;;;;;;21.20;50.70;;;;;;5053399;28;19952;-80
2022/05/23 05:34:24;;;;;;;;;;;21.20;50.90;;;;;;5053217;28;20019;-80
2022/05/23 05:36:52;;;;;;;;;;;21.20;50.80;;;;;;5052396;28;19908;-80
2022/05/23 05:39:19;;;;;;;;;;;21.30;51.20;;;;;;5052869;28;20416;-80
2022/05/23 05:41:48;;;;;;;;;;;21.20;51.00;;;;;;5056786;28;19916;-79
2022/05/23 05:44:18;;;;;;;;;;;21.30;51.00;;;;;;5056404;28;19913;-79
2022/05/23 05:46:47;;;;;;;;;;;21.30;50.90;;;;;;5057435;28;20015;-79
2022/05/23 05:49:16;;;;;;;;;;;21.40;50.90;;;;;;5057701;28;20015;-79
2022/05/23 05:51:41;;;;;;;;;;;21.40;50.80;;;;;;5057472;28;19908;-80
2022/05/23 05:54:08;;;;;;;;;;;21.50;51.00;;;;;;5057215;28;19963;-80
2022/05/23 05:56:34;;;;;;;;;;;21.60;51.20;;;;;;5056720;28;19909;-80
2022/05/23 05:59:00;;;;;;;;;;;21.60;51.00;;;;;;5055528;28;19908;-80
2022/05/23 06:01:25;;;;;;;;;;;21.80;51.10;;;;;;5057038;28;19924;-80
2022/05/23 06:03:51;;;;;;;;;;;21.70;50.80;;;;;;5057022;28;19909;-80
2022/05/23 06:11:45;;;;;;;;;;;21.70;50.70;;;;;;5055075;28;19916;-80
2022/05/23 06:14:10;;;;;;;;;;;21.60;50.80;;;;;;5054364;28;19909;-80
2022/05/23 06:16:37;;;;;;;;;;;21.60;50.80;;;;;;5053926;28;19920;-80
2022/05/23 06:19:02;;;;;;;;;;;21.70;50.90;;;;;;5053957;28;20046;-80
2022/05/23 06:21:28;;;;;;;;;;;21.80;50.80;;;;;;5053677;28;20003;-79
2022/05/23 06:23:54;;;;;;;;;;;22.30;50.30;;;;;;5056286;28;19919;-80
2022/05/23 06:26:21;;;;;;;;;;;22.70;50.00;;;;;;5054139;28;19909;-80
2022/05/23 06:28:47;;;;;;;;;;;;;;;;;;5051936;28;20296;-80
2022/05/23 06:31:13;;;;;;;;;;;;;;;;;;5052084;28;19909;-80
2022/05/23 06:33:39;;;;;;;;;;;;;;;;;;5053740;28;19919;-80
2022/05/23 06:36:05;;;;;;;;;;;;;;;;;;5053538;28;20392;-80
2022/05/23 06:38:31;;;;;;;;;;;;;;;;;;5053177;28;19919;-80
2022/05/23 06:40:57;;;;;;;;;;;;;;;;;;5052302;28;20331;-80
2022/05/23 06:43:23;;;;;;;;;;;;;;;;;;5053460;28;19909;-80
2022/05/23 06:45:49;;;;;;;;;;;;;;;;;;5053543;28;19916;-80
2022/05/23 06:48:15;;;;;;;;;;;;;;;;;;5053227;28;19939;-81
2022/05/23 06:50:41;;;;;;;;;;;;;;;;;;5051925;28;20354;-81
2022/05/23 06:53:07;;;;;;;;;;;;;;;;;;5053745;28;19917;-81
2022/05/23 06:55:32;;;;;;;;;;;;;;;;;;5053656;28;19909;-81
2022/05/23 06:57:59;;;;;;;;;;;;;;;;;;5053563;28;20003;-81
2022/05/23 07:00:25;;;;;;;;;;;;;;;;;;5053757;28;20163;-81
2022/05/23 07:02:51;;;;;;;;;;;;;;;;;;5053704;28;19913;-81
2022/05/23 07:13:31;;;;;;;;;;;;;;;;;;5053326;28;20454;-81
2022/05/23 07:15:57;;;;;;;;;;;;;;;;;;5053375;28;19964;-81
2022/05/23 07:18:23;;;;;;;;;;;;;;;;;;5053571;28;19909;-81
2022/05/23 07:20:49;;;;;;;;;;;;;;;;;;5053676;28;19913;-81
2022/05/23 07:23:15;;;;;;;;;;;;;;;;;;5053726;28;20285;-81
2022/05/23 07:25:41;;;;;;;;;;;;;;;;;;5052806;28;19915;-83
2022/05/23 07:28:07;;;;;;;;;;;;;;;;;;5053243;28;19959;-83
2022/05/23 07:30:32;;;;;;;;;;;;;;;;;;5052610;28;20011;-83
2022/05/23 07:32:58;;;;;;;;;;;;;;;;;;5053094;28;19936;-81
2022/05/23 07:35:24;;;;;;;;;;;;;;;;;;5052263;28;19909;-80
2022/05/23 07:37:50;;;;;;;;;;;;;;;;;;5052847;28;19912;-80
2022/05/23 07:40:16;;;;;;;;;;;;;;;;;;5052790;28;19958;-79
2022/05/23 07:42:43;;;;;;;;;;;;;;;;;;5052786;28;19909;-79
2022/05/23 07:45:09;;;;;;;;;;;;;;;;;;5051174;28;19912;-79
2022/05/23 07:47:35;;;;;;;;;;;;;;;;;;5051272;28;19916;-80
2022/05/23 07:50:01;;;;;;;;;;;;;;;;;;5051729;28;19920;-81
2022/05/23 07:52:27;;;;;;;;;;;;;;;;;;5052925;28;19982;-79
2022/05/23 08:02:51;;;;;;;;;;;;;;;;;;5054949;28;20356;-81
2022/05/23 08:05:17;;;;;;;;;;;;;;;;;;5058606;28;19996;-80
2022/05/23 08:07:43;;;;;;;;;;;;;;;;;;5059581;28;19909;-81
2022/05/23 08:10:10;;;;;;;;;;;;;;;;;;5062659;28;19970;-80
2022/05/23 08:12:36;;;;;;;;;;;;;;;;;;5065399;28;19915;-81
2022/05/23 08:15:02;;;;;;;;;;;;;;;;;;5062234;28;19924;-81
2022/05/23 08:17:28;;;;;;;;;;;;;;;;;;5064588;28;19920;-82
2022/05/23 08:19:54;;;;;;;;;;;;;;;;;;5064348;28;19998;-81
2022/05/23 08:22:20;;;;;;;;;;;;;;;;;;5065861;28;19905;-81
2022/05/23 08:24:46;;;;;;;;;;;;;;;;;;5067904;28;19916;-82
2022/05/23 08:27:13;;;;;;;;;;;;;;;;;;5066151;28;19999;-82
2022/05/23 08:29:39;;;;;;;;;;;;;;;;;;5067336;28;19948;-80
2022/05/23 08:32:05;;;;;;;;;;;;;;;;;;5065473;28;19939;-80
2022/05/23 08:34:31;;;;;;;;;;;;;;;;;;5057457;28;20430;-81
2022/05/23 08:36:58;;;;;;;;;;;;;;;;;;5063975;28;19912;-80
2022/05/23 08:39:24;;;;;;;;;;;;;;;;;;5062664;28;19913;-81
2022/05/23 08:41:50;;;;;;;;;;;;;;;;;;5061201;28;19916;-80
2022/05/23 08:44:16;;;;;;;;;;;;;;;;;;5064839;28;19976;-80
2022/05/23 08:46:41;;;;;;;;;;;;;;;;;;5068830;28;20344;-80
2022/05/23 08:49:07;;;;;;;;;;;;;;;;;;5065075;28;19916;-80
2022/05/23 08:51:33;;;;;;;;;;;;;;;;;;5073852;28;19980;-79
2022/05/23 08:53:59;;;;;;;;;;;;;;;;;;5076917;28;19940;-79
2022/05/23 08:56:25;;;;;;;;;;;;;;;;;;5075989;28;19913;-79
2022/05/23 08:58:52;;;;;;;;;;;;;;;;;;5054377;28;19916;-80
2022/05/23 09:01:18;;;;;;;;;;;;;;;;;;5052464;28;19909;-80
2022/05/23 09:03:44;;;;;;;;;;;;;;;;;;5052974;28;20379;-79
2022/05/23 09:06:10;;;;;;;;;;;;;;;;;;5052502;28;19908;-79
2022/05/23 09:08:35;;;;;;;;;;;;;;;;;;5052114;28;19909;-79
2022/05/23 09:11:01;;;;;;;;;;;;;;;;;;5053328;28;19912;-79
2022/05/23 09:13:30;;;;;;;;;;;;;;;;;;5053108;28;20356;-79
2022/05/23 09:15:59;;;;;;;;;;;;;;;;;;5054423;28;19924;-78
2022/05/23 09:18:25;;;;;;;;;;;;;;;;;;5055433;28;20003;-78
2022/05/23 09:20:51;;;;;;;;;;;;;;;;;;5055808;28;19958;-81
2022/05/23 09:23:17;;;;;;;;;;;;;;;;;;5056177;28;19916;-80
2022/05/23 09:25:43;;;;;;;;;;;;;;;;;;5056278;28;19939;-80
2022/05/23 09:28:09;;;;;;;;;;;;;;;;;;5055114;28;19916;-80
2022/05/23 09:30:35;;;;;;;;;;;;;;;;;;5055592;28;20321;-80
2022/05/23 09:33:01;;;;;;;;;;;;;;;;;;5055948;28;20025;-80
2022/05/23 09:35:27;;;;;;;;;;;;;;;;;;5055940;28;19919;-80
2022/05/23 09:37:53;;;;;;;;;;;;;;;;;;5055678;28;19952;-80
2022/05/23 09:40:19;;;;;;;;;;;;;;;;;;5055175;28;19909;-80
2022/05/23 09:48:14;;;;;;;;;;;;;;;;;;5057558;28;20301;-80
2022/05/23 09:50:40;;;;;;;;;;;;;;;;;;5056722;28;19913;-80
2022/05/23 09:53:06;;;;;;;;;;;;;;;;;;5056784;28;19931;-80
2022/05/23 09:55:33;;;;;;;;;;;;;;;;;;5056146;28;19935;-80
2022/05/23 09:57:59;;;;;;;;;;;;;;;;;;5056849;28;19905;-80
2022/05/23 10:00:25;;;;;;;;;;;;;;;;;;5057072;28;19909;-80
2022/05/23 10:02:51;;;;;;;;;;;;;;;;;;5058573;28;19920;-80
2022/05/23 10:05:17;;;;;;;;;;;;;;;;;;5058082;28;19916;-80
2022/05/23 10:07:43;;;;;;;;;;;;;;;;;;5059100;28;20384;-80
2022/05/23 10:10:09;;;;;;;;;;;;;;;;;;5066110;28;19913;-80
2022/05/23 10:12:35;;;;;;;;;;;;;;;;;;5058612;28;19909;-80
2022/05/23 10:15:01;;;;;;;;;;;;;;;;;;5068502;28;19917;-80
2022/05/23 10:17:27;;;;;;;;;;;;;;;;;;5066417;28;20387;-80
2022/05/23 10:19:54;;;;;;;;;;;;;;;;;;5061850;28;20372;-80
2022/05/23 10:22:22;;;;;;;;;;;;;;;;;;5057723;28;19941;-80
2022/05/23 10:24:47;;;;;;;;;;;;;;;;;;5058745;28;19916;-80
2022/05/23 10:27:15;;;;;;;;;;;;;;;;;;5061049;28;19992;-80
2022/05/23 10:29:41;;;;;;;;;;;;;;;;;;5058175;28;19912;-80
2022/05/23 10:32:07;;;;;;;;;;;;;;;;;;5065512;28;19931;-80
2022/05/23 10:34:33;;;;;;;;;;;;;;;;;;5065057;28;19942;-80
2022/05/23 10:37:00;;;;;;;;;;;;;;;;;;5070389;28;19909;-80
2022/05/23 10:42:11;;;;;;;;;;;;;;;;;;5066522;28;19970;-80
2022/05/23 10:44:37;;;;;;;;;;;;;;;;;;5066752;28;19916;-80
2022/05/23 10:47:03;;;;;;;;;;;;;;;;;;5064417;28;20311;-80
2022/05/23 10:49:29;;;;;;;;;;;;;;;;;;5058697;28;19917;-80
2022/05/23 10:51:55;;;;;;;;;;;;;;;;;;5059875;28;20329;-80
2022/05/23 10:54:21;;;;;;;;;;;;;;;;;;5059257;28;19909;-80
2022/05/23 10:56:47;;;;;;;;;;;;;;;;;;5059448;28;20376;-80
2022/05/23 10:59:13;;;;;;;;;;;;;;;;;;5061783;28;19917;-80
2022/05/23 11:01:39;;;;;;;;;;;;;;;;;;5058979;28;19932;-80
2022/05/23 11:04:05;;;;;;;;;;;;;;;;;;5062170;28;19912;-80
2022/05/23 11:06:31;;;;;;;;;;;;;;;;;;5060384;28;19913;-80
2022/05/23 11:08:57;;;;;;;;;;;;;;;;;;5060900;28;19908;-80
2022/05/23 11:11:23;;;;;;;;;;;;;;;;;;5060236;28;19918;-80
2022/05/23 11:13:49;;;;;;;;;;;;;;;;;;5062271;28;19919;-80
2022/05/23 11:16:15;;;;;;;;;;;;;;;;;;5059127;28;19921;-80
2022/05/23 11:18:41;;;;;;;;;;;;;;;;;;5058035;28;20280;-80
2022/05/23 11:21:07;;;;;;;;;;;;;;;;;;5060706;28;19935;-80
2022/05/23 11:23:33;;;;;;;;;;;;;;;;;;5060147;28;20435;-80
2022/05/23 11:25:59;;;;;;;;;;;;;;;;;;5059209;28;19913;-80
2022/05/23 11:33:55;;;;;;;;;;;;;;;;;;5060967;28;19923;-80
2022/05/23 11:36:24;;;;;;;;;;;;;;;;;;5059943;28;19921;-80
2022/05/23 11:38:50;;;;;;;;;;;;;;;;;;5059684;28;19956;-80
2022/05/23 11:41:16;;;;;;;;;;;;;;;;;;5058364;28;20295;-80
2022/05/23 11:43:42;;;;;;;;;;;;;;;;;;5061571;28;19996;-79
2022/05/23 11:46:08;;;;;;;;;;;;;;;;;;5058286;28;19913;-79
2022/05/23 11:48:56;;;;;;;;;;;;;;;;;;5058836;28;19916;-79
2022/05/23 11:51:20;;;;;;;;;;;;;;;;;;5059271;28;19913;-79
2022/05/23 11:53:46;;;;;;;;;;;;;;;;;;5058889;28;19953;-79
2022/05/23 11:56:12;;;;;;;;;;;;;;;;;;5058571;28;19920;-79
2022/05/23 11:58:38;;;;;;;;;;;;;;;;;;5056291;28;20011;-79
2022/05/23 12:01:04;;;;;;;;;;;;;;;;;;5055633;28;20039;-79
2022/05/23 12:03:30;;;;;;;;;;;;;;;;;;5051736;28;20369;-78
2022/05/23 12:05:56;;;;;;;;;;;;;;;;;;5052214;28;19963;-79
2022/05/23 12:08:22;;;;;;;;;;;;;;;;;;5053796;28;20269;-78
2022/05/23 12:10:48;;;;;;;;;;;;;;;;;;5057128;28;19920;-78
2022/05/23 12:13:14;;;;;;;;;;;;;;;;;;5053052;28;19913;-79
2022/05/23 12:15:40;;;;;;;;;;;;;;;;;;5038263;28;19971;-78
2022/05/23 12:18:06;;;;;;;;;;;;;;;;;;5048545;28;19913;-79
2022/05/23 12:20:32;;;;;;;;;;;;;;;;;;5054766;28;20058;-78
2022/05/23 12:22:58;;;;;;;;;;;;;;;;;;5054310;28;20285;-78
2022/05/23 12:25:24;;;;;;;;;;;;;;;;;;5062174;28;19934;-80
2022/05/23 12:27:49;;;;;;;;;;;;;;;;;;5061055;28;19999;-78
2022/05/23 12:30:15;;;;;;;;;;;;;;;;;;5056155;28;19913;-79
2022/05/23 12:32:41;;;;;;;;;;;;;;;;;;5041282;28;19983;-79
2022/05/23 12:35:08;;;;;;;;;;;;;;;;;;5040977;28;19913;-79
2022/05/23 12:37:33;;;;;;;;;;;;;;;;;;5053526;28;19913;-79
2022/05/23 12:40:01;;;;;;;;;;;;;;;;;;5050700;28;19912;-79
2022/05/23 12:42:27;;;;;;;;;;;;;;;;;;5049333;28;19973;-79
2022/05/23 12:44:53;;;;;;;;;;;;;;;;;;5050681;28;20000;-79
2022/05/23 12:47:19;;;;;;;;;;;;;;;;;;5049747;28;20381;-79
2022/05/23 12:49:45;;;;;;;;;;;;;;;;;;5047254;28;19913;-79
2022/05/23 12:52:11;;;;;;;;;;;;;;;;;;5048430;28;19924;-80
2022/05/23 12:54:37;;;;;;;;;;;;;;;;;;5062828;28;19913;-79
2022/05/23 12:57:03;;;;;;;;;;;;;;;;;;5070460;28;19931;-79
2022/05/23 12:59:30;;;;;;;;;;;;;;;;;;5064193;28;20287;-79
2022/05/23 13:01:56;;;;;;;;;;;;;;;;;;5070863;28;19955;-79
2022/05/23 13:04:22;;;;;;;;;;;;;;;;;;5067804;28;19912;-79
2022/05/23 13:06:48;;;;;;;;;;;;;;;;;;5051997;28;19928;-79
2022/05/23 13:09:14;;;;;;;;;;;;;;;;;;5062843;28;19917;-79
2022/05/23 13:11:40;;;;;;;;;;;;;;;;;;5069620;28;20007;-79
2022/05/23 13:14:07;;;;;;;;;;;;;;;;;;5067352;28;20056;-79
2022/05/23 13:16:33;;;;;;;;;;;;;;;;;;5060243;28;19974;-79
2022/05/23 13:27:13;;;;;;;;;;;;;;;;;;5077690;28;20007;-79
2022/05/23 13:29:39;;;;;;;;;;;;;;;;;;5071737;28;19920;-79
2022/05/23 13:32:05;;;;;;;;;;;;;;;;;;5060585;28;19936;-79
2022/05/23 13:34:31;;;;;;;;;;;;;;;;;;5063311;28;20016;-79
2022/05/23 13:36:56;;;;;;;;;;;;;;;;;;5062305;28;20365;-79
2022/05/23 13:39:23;;;;;;;;;;;;;;;;;;5053724;28;20285;-79
2022/05/23 13:41:49;;;;;;;;;;;;;;;;;;5040995;28;20293;-79
2022/05/23 13:44:15;;;;;;;;;;;;;;;;;;5041498;28;19967;-79
2022/05/23 13:46:41;;;;;;;;;;;;;;;;;;5039582;28;19909;-79
2022/05/23 13:49:08;;;;;;;;;;;;;;;;;;5042798;28;19980;-79
2022/05/23 13:51:34;;;;;;;;;;;;;;;;;;5041489;28;20525;-79
2022/05/23 13:54:00;;;;;;;;;;;;;;;;;;5040557;28;19976;-79
2022/05/23 13:56:26;;;;;;;;;;;;;;;;;;5041952;28;19909;-79
2022/05/23 13:58:52;;;;;;;;;;;;;;;;;;5043402;28;19920;-79
2022/05/23 14:01:18;;;;;;;;;;;;;;;;;;5042702;28;19913;-79
2022/05/23 14:03:44;;;;;;;;;;;;;;;;;;5060945;28;20007;-79
2022/05/23 14:06:10;;;;;;;;;;;;;;;;;;5066552;28;20400;-79
2022/05/23 14:08:37;;;;;;;;;;;;;;;;;;5060185;28;19924;-79
2022/05/23 14:11:03;;;;;;;;;;;;;;;;;;5063988;28;20265;-79
2022/05/23 14:13:29;;;;;;;;;;;;;;;;;;5065261;28;19913;-79
2022/05/23 14:15:55;;;;;;;;;;;;;;;;;;5066155;28;19988;-79
2022/05/23 14:18:21;;;;;;;;;;;;;;;;;;5059989;28;19944;-79
2022/05/23 14:20:48;;;;;;;;;;;;;;;;;;5064618;28;19991;-79
2022/05/23 14:23:14;;;;;;;;;;;;;;;;;;5062582;28;19909;-79
2022/05/23 14:25:40;;;;;;;;;;;;;;;;;;5067337;28;19920;-79
2022/05/23 14:28:06;;;;;;;;;;;;;;;;;;5062992;28;19909;-80
2022/05/23 14:30:35;;;;;;;;;;;;;;;;;;5058966;28;19935;-80
2022/05/23 14:33:02;;;;;;;;;;;;;;;;;;5035776;28;19978;-79
2022/05/23 14:35:28;;;;;;;;;;;;;;;;;;5033449;28;19905;-79
2022/05/23 14:37:53;;;;;;;;;;;;;;;;;;5035706;28;19913;-79
2022/05/23 14:40:19;;;;;;;;;;;;;;;;;;5035852;28;20011;-80
2022/05/23 14:42:45;;;;;;;;;;;;;;;;;;5040781;28;19909;-80
2022/05/23 14:45:12;;;;;;;;;;;;;;;;;;5039461;28;19910;-79
2022/05/23 14:47:38;;;;;;;;;;;;;;;;;;5037330;28;19913;-80
2022/05/23 14:50:05;;;;;;;;;;;;;;;;;;5054788;28;19923;-80
2022/05/23 14:52:31;;;;;;;;;;;;;;;;;;5055097;28;19952;-80
2022/05/23 15:00:42;;;;;;;;;;;;;;;;;;5057191;28;19950;-80
2022/05/23 15:03:08;;;;;;;;;;;;;;;;;;5059085;28;20466;-80
2022/05/23 15:05:34;;;;;;;;;;;;;;;;;;5056590;28;19916;-79
2022/05/23 15:08:00;;;;;;;;;;;;;;;;;;5057719;28;19994;-79
2022/05/23 15:10:26;;;;;;;;;;;;;;;;;;5054181;28;20395;-80
2022/05/23 15:12:52;;;;;;;;;;;;;;;;;;5055966;28;19916;-80
2022/05/23 15:15:18;;;;;;;;;;;;;;;;;;5056751;28;19996;-82
2022/05/23 15:17:44;;;;;;;;;;;;;;;;;;5052278;28;19968;-80
2022/05/23 15:20:10;;;;;;;;;;;;;;;;;;5052296;28;19920;-80
2022/05/23 15:22:36;;;;;;;;;;;;;;;;;;5049519;28;19912;-80
2022/05/23 15:25:02;;;;;;;;;;;;;;;;;;5055324;28;19916;-80
2022/05/23 15:27:28;;;;;;;;;;;;;;;;;;5052190;28;20352;-80
2022/05/23 15:29:55;;;;;;;;;;;;;;;;;;5063567;28;20412;-80
2022/05/23 15:32:21;;;;;;;;;;;;;;;;;;5071216;28;19908;-80
2022/05/23 15:34:47;;;;;;;;;;;;;;;;;;5055819;28;19912;-80
2022/05/23 15:37:13;;;;;;;;;;;;;;;;;;5052798;28;19916;-81
2022/05/23 15:39:43;;;;;;;;;;;;;;;;;;5052007;28;19909;-80
2022/05/23 15:42:09;;;;;;;;;;;;;;;;;;5047916;28;19916;-80
2022/05/23 15:44:35;;;;;;;;;;;;;;;;;;5053884;28;19977;-79
2022/05/23 15:47:01;;;;;;;;;;;;;;;;;;5053473;28;20016;-81
2022/05/23 15:49:27;;;;;;;;;;;;;;;;;;5051046;28;20007;-80
2022/05/23 15:51:53;;;;;;;;;;;;;;;;;;5051673;28;19940;-80
2022/05/23 15:54:19;;;;;;;;;;;;;;;;;;5051507;28;20372;-80
2022/05/23 15:56:45;;;;;;;;;;;;;;;;;;5034328;28;19910;-80
2022/05/23 15:59:11;;;;;;;;;;;;;;;;;;5040758;28;19920;-80
2022/05/23 16:01:37;;;;;;;;;;;;;;;;;;5053881;28;19920;-82
2022/05/23 16:04:03;;;;;;;;;;;;;;;;;;5050464;28;20398;-80
2022/05/23 16:06:29;;;;;;;;;;;;;;;;;;5051818;28;19944;-80
2022/05/23 16:08:55;;;;;;;;;;;;;;;;;;5050434;28;19913;-80
2022/05/23 16:11:21;;;;;;;;;;;;;;;;;;5052995;28;19967;-80
2022/05/23 16:13:47;;;;;;;;;;;;;;;;;;5053782;28;19912;-80
2022/05/23 16:16:13;;;;;;;;;;;;;;;;;;5049974;28;20373;-80
2022/05/23 16:18:39;;;;;;;;;;;;;;;;;;5050752;28;19979;-80
2022/05/23 16:21:05;;;;;;;;;;;;;;;;;;5049032;28;19948;-80
2022/05/23 16:23:32;;;;;;;;;;;;;;;;;;5050071;28;19956;-82
2022/05/23 16:25:58;;;;;;;;;;;;;;;;;;5049120;28;19947;-80
2022/05/23 16:28:24;;;;;;;;;;;;;;;;;;5049789;28;19913;-81
2022/05/23 16:30:50;;;;;;;;;;;;;;;;;;5032806;28;20008;-81
2022/05/23 16:38:47;;;;;;;;;;;;;;;;;;5049548;28;20312;-80
2022/05/23 16:41:13;;;;;;;;;;;;;;;;;;5048593;28;19913;-80
2022/05/23 16:43:39;;;;;;;;;;;;;;;;;;5050219;28;20376;-80
2022/05/23 16:46:05;;;;;;;;;;;;;;;;;;5048072;28;20258;-80
2022/05/23 16:48:31;;;;;;;;;;;;;;;;;;5049627;28;19979;-80
2022/05/23 16:50:58;;;;;;;;;;;;;;;;;;5050033;28;19955;-80
2022/05/23 16:53:24;;;;;;;;;;;;;;;;;;5050238;28;19909;-80
2022/05/23 16:55:50;;;;;;;;;;;;;;;;;;5049888;28;20307;-81
2022/05/23 16:58:16;;;;;;;;;;;;;;;;;;5048010;28;20391;-80
2022/05/23 17:00:43;;;;;;;;;;;;;;;;;;5048090;28;20372;-80